Terminal Aerodrome Forecast
Issued by NWS

Home | Current Version | Previous Version | Text Only | Print | Product List | Glossary Off
Versions: 1 2 3 4 5 6 7 8 9 10 11 12 13 14 15 16 17 18 19 20 21 22 23 24 25 26 27 28 29

000
FTUS43 KGRB 271517 AAA
TAFATW
TAF AMD
KATW 271517Z 2715/2812 07006KT P6SM BKN090 OVC200
     FM271600 15010G17KT P6SM VCSH SCT040 OVC100
      TEMPO 2716/2718 4SM TSRA BKN040 OVC070CB
     FM280100 16006KT 6SM BR VCSH SCT020 OVC035
     FM280400 16007KT 4SM BR VCSH BKN012 OVC020
      TEMPO 2804/2808 2SM -SHRA BR BKN006
     FM280800 18007KT 3SM BR VCSH BKN004 OVC020=

USA.gov is the U.S. government's official web portal to all federal, state and local government web resources and services.